sensor_id;sensor_type;location;lat;lon;timestamp;pressure;altitude;pressure_sealevel;temperature;humidity
16580;BME280;8402;51.466;6.806;2023-04-07T00:02:07;101087.16;;;10.19;100.00
16580;BME280;8402;51.466;6.806;2023-04-07T00:04:39;101098.03;;;10.19;100.00
16580;BME280;8402;51.466;6.806;2023-04-07T00:07:09;101094.81;;;10.17;100.00
16580;BME280;8402;51.466;6.806;2023-04-07T00:09:39;101091.63;;;10.15;100.00
16580;BME280;8402;51.466;6.806;2023-04-07T00:12:09;101090.00;;;10.14;100.00
16580;BME280;8402;51.466;6.806;2023-04-07T00:14:39;101083.56;;;10.10;100.00
16580;BME280;8402;51.466;6.806;2023-04-07T00:17:09;101090.59;;;10.11;100.00
16580;BME280;8402;51.466;6.806;2023-04-07T00:19:41;101093.81;;;10.13;100.00
16580;BME280;8402;51.466;6.806;2023-04-07T00:22:11;101094.81;;;10.17;100.00
16580;BME280;8402;51.466;6.806;2023-04-07T00:24:41;101092.59;;;10.19;99.92
16580;BME280;8402;51.466;6.806;2023-04-07T00:27:11;101088.78;;;10.20;99.86
16580;BME280;8402;51.466;6.806;2023-04-07T00:29:40;101092.03;;;10.23;99.53
16580;BME280;8402;51.466;6.806;2023-04-07T00:32:12;101094.19;;;10.20;100.00
16580;BME280;8402;51.466;6.806;2023-04-07T00:34:45;101093.72;;;10.18;100.00
16580;BME280;8402;51.466;6.806;2023-04-07T00:37:14;101090.28;;;10.13;100.00
16580;BME280;8402;51.466;6.806;2023-04-07T00:39:45;101086.78;;;10.12;100.00
16580;BME280;8402;51.466;6.806;2023-04-07T00:42:17;101084.78;;;10.04;100.00
16580;BME280;8402;51.466;6.806;2023-04-07T00:44:47;101090.81;;;10.01;100.00
16580;BME280;8402;51.466;6.806;2023-04-07T00:47:17;101090.19;;;10.04;100.00
16580;BME280;8402;51.466;6.806;2023-04-07T00:49:49;101077.94;;;10.07;100.00
16580;BME280;8402;51.466;6.806;2023-04-07T00:52:20;101078.56;;;10.04;100.00
16580;BME280;8402;51.466;6.806;2023-04-07T00:54:54;101080.94;;;10.05;100.00
16580;BME280;8402;51.466;6.806;2023-04-07T00:57:24;101077.94;;;10.07;100.00
16580;BME280;8402;51.466;6.806;2023-04-07T00:59:55;101086.78;;;10.12;100.00
16580;BME280;8402;51.466;6.806;2023-04-07T01:02:31;101075.34;;;10.15;100.00
16580;BME280;8402;51.466;6.806;2023-04-07T01:05:12;101075.34;;;10.15;100.00
16580;BME280;8402;51.466;6.806;2023-04-07T01:07:50;101073.94;;;10.18;100.00
16580;BME280;8402;51.466;6.806;2023-04-07T01:10:26;101072.50;;;10.20;100.00
16580;BME280;8402;51.466;6.806;2023-04-07T01:13:04;101075.78;;;10.23;100.00
16580;BME280;8402;51.466;6.806;2023-04-07T01:15:35;101076.75;;;10.27;100.00
16580;BME280;8402;51.466;6.806;2023-04-07T01:18:11;101079.16;;;10.28;100.00
16580;BME280;8402;51.466;6.806;2023-04-07T01:20:45;101075.34;;;10.29;100.00
16580;BME280;8402;51.466;6.806;2023-04-07T01:23:24;101075.84;;;10.31;100.00
16580;BME280;8402;51.466;6.806;2023-04-07T01:26:15;101074.75;;;10.32;100.00
16580;BME280;8402;51.466;6.806;2023-04-07T01:29:03;101060.06;;;10.33;100.00
16580;BME280;8402;51.466;6.806;2023-04-07T01:31:40;101063.47;;;10.39;100.00
16580;BME280;8402;51.466;6.806;2023-04-07T01:34:11;101064.50;;;10.43;100.00
16580;BME280;8402;51.466;6.806;2023-04-07T01:36:42;101063.88;;;10.46;100.00
16580;BME280;8402;51.466;6.806;2023-04-07T01:39:12;101068.66;;;10.49;100.00
16580;BME280;8402;51.466;6.806;2023-04-07T01:41:43;101068.66;;;10.49;100.00
16580;BME280;8402;51.466;6.806;2023-04-07T01:44:14;101070.00;;;10.52;100.00
16580;BME280;8402;51.466;6.806;2023-04-07T01:46:47;101067.44;;;10.55;100.00
16580;BME280;8402;51.466;6.806;2023-04-07T01:49:18;101065.22;;;10.57;100.00
16580;BME280;8402;51.466;6.806;2023-04-07T01:51:48;101073.09;;;10.59;100.00
16580;BME280;8402;51.466;6.806;2023-04-07T01:54:19;101067.03;;;10.62;100.00
16580;BME280;8402;51.466;6.806;2023-04-07T01:56:50;101073.56;;;10.61;100.00
16580;BME280;8402;51.466;6.806;2023-04-07T01:59:20;101067.84;;;10.62;100.00
16580;BME280;8402;51.466;6.806;2023-04-07T02:01:52;101062.41;;;10.62;100.00
16580;BME280;8402;51.466;6.806;2023-04-07T02:04:27;101066.53;;;10.60;100.00
16580;BME280;8402;51.466;6.806;2023-04-07T02:07:02;101069.25;;;10.60;100.00
16580;BME280;8402;51.466;6.806;2023-04-07T02:09:37;101059.22;;;10.60;100.00
16580;BME280;8402;51.466;6.806;2023-04-07T02:12:11;101070.06;;;10.60;100.00
16580;BME280;8402;51.466;6.806;2023-04-07T02:14:43;101059.81;;;10.57;100.00
16580;BME280;8402;51.466;6.806;2023-04-07T02:17:16;101062.50;;;10.57;100.00
16580;BME280;8402;51.466;6.806;2023-04-07T02:19:49;101059.00;;;10.57;100.00
16580;BME280;8402;51.466;6.806;2023-04-07T02:22:20;101074.69;;;10.60;100.00
16580;BME280;8402;51.466;6.806;2023-04-07T02:24:49;101061.59;;;10.62;100.00
16580;BME280;8402;51.466;6.806;2023-04-07T02:27:19;101068.31;;;10.64;100.00
16580;BME280;8402;51.466;6.806;2023-04-07T02:29:49;101072.66;;;10.65;100.00
16580;BME280;8402;51.466;6.806;2023-04-07T02:32:22;101068.84;;;10.66;100.00
16580;BME280;8402;51.466;6.806;2023-04-07T02:34:52;101067.41;;;10.69;100.00
16580;BME280;8402;51.466;6.806;2023-04-07T02:37:22;101071.72;;;10.70;100.00
16580;BME280;8402;51.466;6.806;2023-04-07T02:39:52;101076.84;;;10.71;100.00
16580;BME280;8402;51.466;6.806;2023-04-07T02:42:22;101067.91;;;10.71;100.00
16580;BME280;8402;51.466;6.806;2023-04-07T02:44:52;101073.06;;;10.72;100.00
16580;BME280;8402;51.466;6.806;2023-04-07T02:47:25;101073.22;;;10.76;100.00
16580;BME280;8402;51.466;6.806;2023-04-07T02:49:55;101076.75;;;10.77;100.00
16580;BME280;8402;51.466;6.806;2023-04-07T02:52:25;101075.63;;;10.78;100.00
16580;BME280;8402;51.466;6.806;2023-04-07T02:54:55;101076.25;;;10.74;100.00
16580;BME280;8402;51.466;6.806;2023-04-07T02:57:25;101071.94;;;10.73;100.00
16580;BME280;8402;51.466;6.806;2023-04-07T02:59:54;101077.38;;;10.73;100.00
16580;BME280;8402;51.466;6.806;2023-04-07T03:02:27;101078.28;;;10.69;100.00
16580;BME280;8402;51.466;6.806;2023-04-07T03:04:57;101078.28;;;10.69;100.00
16580;BME280;8402;51.466;6.806;2023-04-07T03:07:27;101085.81;;;10.72;100.00
16580;BME280;8402;51.466;6.806;2023-04-07T03:09:57;101078.66;;;10.76;100.00
16580;BME280;8402;51.466;6.806;2023-04-07T03:12:27;101080.78;;;10.79;100.00
16580;BME280;8402;51.466;6.806;2023-04-07T03:14:57;101080.47;;;10.81;100.00
16580;BME280;8402;51.466;6.806;2023-04-07T03:17:30;101082.06;;;10.82;100.00
16580;BME280;8402;51.466;6.806;2023-04-07T03:20:00;101085.38;;;10.79;100.00
16580;BME280;8402;51.466;6.806;2023-04-07T03:22:30;101084.88;;;10.77;100.00
16580;BME280;8402;51.466;6.806;2023-04-07T03:25:00;101086.78;;;10.76;100.00
16580;BME280;8402;51.466;6.806;2023-04-07T03:27:30;101090.41;;;10.71;100.00
16580;BME280;8402;51.466;6.806;2023-04-07T03:30:00;101082.28;;;10.71;100.00
16580;BME280;8402;51.466;6.806;2023-04-07T03:32:32;101082.91;;;10.68;100.00
16580;BME280;8402;51.466;6.806;2023-04-07T03:35:02;101088.94;;;10.65;100.00
16580;BME280;8402;51.466;6.806;2023-04-07T03:37:32;101092.16;;;10.67;100.00
16580;BME280;8402;51.466;6.806;2023-04-07T03:40:02;101088.31;;;10.68;100.00
16580;BME280;8402;51.466;6.806;2023-04-07T03:42:32;101090.41;;;10.71;100.00
16580;BME280;8402;51.466;6.806;2023-04-07T03:45:02;101093.13;;;10.71;100.00
16580;BME280;8402;51.466;6.806;2023-04-07T03:47:35;101095.84;;;10.71;100.00
16580;BME280;8402;51.466;6.806;2023-04-07T03:50:06;101086.09;;;10.70;100.00
16580;BME280;8402;51.466;6.806;2023-04-07T03:52:36;101085.31;;;10.70;100.00
16580;BME280;8402;51.466;6.806;2023-04-07T03:55:07;101098.56;;;10.71;100.00
16580;BME280;8402;51.466;6.806;2023-04-07T03:57:37;101087.69;;;10.71;100.00
16580;BME280;8402;51.466;6.806;2023-04-07T04:00:08;101090.13;;;10.73;100.00
16580;BME280;8402;51.466;6.806;2023-04-07T04:02:41;101096.38;;;10.73;100.00
16580;BME280;8402;51.466;6.806;2023-04-07T04:05:11;101093.66;;;10.73;100.00
16580;BME280;8402;51.466;6.806;2023-04-07T04:07:41;101094.75;;;10.72;100.00
16580;BME280;8402;51.466;6.806;2023-04-07T04:10:11;101103.41;;;10.74;100.00
16580;BME280;8402;51.466;6.806;2023-04-07T04:12:41;101103.69;;;10.73;100.00
16580;BME280;8402;51.466;6.806;2023-04-07T04:15:12;101104.81;;;10.72;100.00
16580;BME280;8402;51.466;6.806;2023-04-07T04:17:44;101109.41;;;10.71;100.00
16580;BME280;8402;51.466;6.806;2023-04-07T04:20:15;101108.63;;;10.71;100.00
16580;BME280;8402;51.466;6.806;2023-04-07T04:22:45;101106.69;;;10.71;100.00
16580;BME280;8402;51.466;6.806;2023-04-07T04:25:15;101105.91;;;10.71;100.00
16580;BME280;8402;51.466;6.806;2023-04-07T04:27:45;101110.03;;;10.68;100.00
16580;BME280;8402;51.466;6.806;2023-04-07T04:30:15;101120.72;;;10.65;100.00
16580;BME280;8402;51.466;6.806;2023-04-07T04:32:47;101126.31;;;10.68;100.00
16580;BME280;8402;51.466;6.806;2023-04-07T04:35:18;101122.97;;;10.71;100.00
16580;BME280;8402;51.466;6.806;2023-04-07T04:37:47;101128.94;;;10.73;100.00
16580;BME280;8402;51.466;6.806;2023-04-07T04:40:18;101124.63;;;10.72;100.00
16580;BME280;8402;51.466;6.806;2023-04-07T04:42:48;101123.28;;;10.70;100.00
16580;BME280;8402;51.466;6.806;2023-04-07T04:45:18;101138.78;;;10.69;100.00
16580;BME280;8402;51.466;6.806;2023-04-07T04:47:50;101136.38;;;10.68;100.00
16580;BME280;8402;51.466;6.806;2023-04-07T04:50:20;101140.38;;;10.70;100.00
16580;BME280;8402;51.466;6.806;2023-04-07T04:52:50;101133.03;;;10.71;100.00
16580;BME280;8402;51.466;6.806;2023-04-07T04:55:20;101139.28;;;10.71;100.00
16580;BME280;8402;51.466;6.806;2023-04-07T04:57:50;101138.28;;;10.67;100.00
16580;BME280;8402;51.466;6.806;2023-04-07T05:00:20;101138.59;;;10.66;100.00
16580;BME280;8402;51.466;6.806;2023-04-07T05:02:53;101146.53;;;10.62;100.00
16580;BME280;8402;51.466;6.806;2023-04-07T05:05:23;101145.03;;;10.56;100.00
16580;BME280;8402;51.466;6.806;2023-04-07T05:07:53;101151.25;;;10.57;100.00
16580;BME280;8402;51.466;6.806;2023-04-07T05:10:23;101155.09;;;10.56;100.00
16580;BME280;8402;51.466;6.806;2023-04-07T05:12:53;101154.28;;;10.55;100.00
16580;BME280;8402;51.466;6.806;2023-04-07T05:15:23;101155.88;;;10.56;100.00
16580;BME280;8402;51.466;6.806;2023-04-07T05:17:55;101158.00;;;10.59;100.00
16580;BME280;8402;51.466;6.806;2023-04-07T05:20:25;101161.69;;;10.63;100.00
16580;BME280;8402;51.466;6.806;2023-04-07T05:22:55;101165.53;;;10.62;100.00
16580;BME280;8402;51.466;6.806;2023-04-07T05:25:25;101165.53;;;10.62;100.00
16580;BME280;8402;51.466;6.806;2023-04-07T05:27:56;101162.31;;;10.60;100.00
16580;BME280;8402;51.466;6.806;2023-04-07T05:30:26;101166.75;;;10.56;100.00
16580;BME280;8402;51.466;6.806;2023-04-07T05:32:59;101166.56;;;10.53;100.00
16580;BME280;8402;51.466;6.806;2023-04-07T05:35:29;101163.34;;;10.51;100.00
16580;BME280;8402;51.466;6.806;2023-04-07T05:37:58;101171.50;;;10.51;100.00
16580;BME280;8402;51.466;6.806;2023-04-07T05:40:28;101177.81;;;10.46;100.00
16580;BME280;8402;51.466;6.806;2023-04-07T05:43:00;101177.81;;;10.46;100.00
16580;BME280;8402;51.466;6.806;2023-04-07T05:45:30;101185.47;;;10.44;100.00
16580;BME280;8402;51.466;6.806;2023-04-07T05:48:04;101179.50;;;10.42;100.00
16580;BME280;8402;51.466;6.806;2023-04-07T05:50:34;101186.03;;;10.41;100.00
16580;BME280;8402;51.466;6.806;2023-04-07T05:53:04;101193.19;;;10.37;100.00
16580;BME280;8402;51.466;6.806;2023-04-07T05:55:34;101187.84;;;10.32;100.00
16580;BME280;8402;51.466;6.806;2023-04-07T05:58:04;101188.34;;;10.34;100.00
16580;BME280;8402;51.466;6.806;2023-04-07T06:00:34;101191.59;;;10.36;100.00
16580;BME280;8402;51.466;6.806;2023-04-07T06:03:06;101192.66;;;10.35;100.00
16580;BME280;8402;51.466;6.806;2023-04-07T06:05:39;101192.16;;;10.33;100.00
16580;BME280;8402;51.466;6.806;2023-04-07T06:08:09;101200.31;;;10.33;100.00
16580;BME280;8402;51.466;6.806;2023-04-07T06:10:39;101198.63;;;10.37;100.00
16580;BME280;8402;51.466;6.806;2023-04-07T06:13:10;101209.34;;;10.42;100.00
16580;BME280;8402;51.466;6.806;2023-04-07T06:15:39;101204.13;;;10.45;100.00
16580;BME280;8402;51.466;6.806;2023-04-07T06:18:12;101210.28;;;10.51;100.00
16580;BME280;8402;51.466;6.806;2023-04-07T06:20:42;101202.53;;;10.58;100.00
16580;BME280;8402;51.466;6.806;2023-04-07T06:23:11;101209.97;;;10.66;100.00
16580;BME280;8402;51.466;6.806;2023-04-07T06:25:41;101212.38;;;10.68;100.00
16580;BME280;8402;51.466;6.806;2023-04-07T06:28:11;101214.78;;;10.69;100.00
16580;BME280;8402;51.466;6.806;2023-04-07T06:30:41;101210.16;;;10.70;100.00
16580;BME280;8402;51.466;6.806;2023-04-07T06:33:14;101210.66;;;10.72;100.00
16580;BME280;8402;51.466;6.806;2023-04-07T06:35:44;101217.97;;;10.71;100.00
16580;BME280;8402;51.466;6.806;2023-04-07T06:38:14;101219.59;;;10.72;100.00
16580;BME280;8402;51.466;6.806;2023-04-07T06:40:44;101208.44;;;10.74;100.00
16580;BME280;8402;51.466;6.806;2023-04-07T06:43:14;101215.00;;;10.73;100.00
16580;BME280;8402;51.466;6.806;2023-04-07T06:45:44;101223.31;;;10.77;100.00
16580;BME280;8402;51.466;6.806;2023-04-07T06:48:17;101223.00;;;10.78;100.00
16580;BME280;8402;51.466;6.806;2023-04-07T06:50:48;101225.94;;;10.82;100.00
16580;BME280;8402;51.466;6.806;2023-04-07T06:53:18;101232.47;;;10.81;100.00
16580;BME280;8402;51.466;6.806;2023-04-07T06:55:48;101231.34;;;10.82;100.00
16580;BME280;8402;51.466;6.806;2023-04-07T06:58:18;101231.34;;;10.82;100.00
16580;BME280;8402;51.466;6.806;2023-04-07T07:00:47;101237.28;;;10.84;100.00
16580;BME280;8402;51.466;6.806;2023-04-07T07:03:20;101242.91;;;10.87;100.00
16580;BME280;8402;51.466;6.806;2023-04-07T07:05:53;101246.13;;;10.89;100.00
16580;BME280;8402;51.466;6.806;2023-04-07T07:08:23;101245.13;;;10.85;100.00
16580;BME280;8402;51.466;6.806;2023-04-07T07:10:53;101236.97;;;10.85;100.00
16580;BME280;8402;51.466;6.806;2023-04-07T07:13:24;101244.31;;;10.85;100.00
16580;BME280;8402;51.466;6.806;2023-04-07T07:15:54;101240.69;;;10.89;100.00
16580;BME280;8402;51.466;6.806;2023-04-07T07:18:27;101238.69;;;10.95;100.00
16580;BME280;8402;51.466;6.806;2023-04-07T07:20:57;101239.66;;;10.99;100.00
16580;BME280;8402;51.466;6.806;2023-04-07T07:23:27;101242.91;;;11.01;100.00
16580;BME280;8402;51.466;6.806;2023-04-07T07:25:57;101248.81;;;11.03;100.00
16580;BME280;8402;51.466;6.806;2023-04-07T07:28:27;101255.38;;;11.02;100.00
16580;BME280;8402;51.466;6.806;2023-04-07T07:30:57;101245.31;;;11.02;100.00
16580;BME280;8402;51.466;6.806;2023-04-07T07:33:30;101253.75;;;11.01;100.00
16580;BME280;8402;51.466;6.806;2023-04-07T07:35:59;101261.38;;;10.99;100.00
16580;BME280;8402;51.466;6.806;2023-04-07T07:38:29;101262.50;;;10.98;100.00
16580;BME280;8402;51.466;6.806;2023-04-07T07:41:02;101265.53;;;10.96;100.00
16580;BME280;8402;51.466;6.806;2023-04-07T07:43:32;101267.44;;;10.96;100.00
16580;BME280;8402;51.466;6.806;2023-04-07T07:46:03;101271.25;;;10.95;100.00
16580;BME280;8402;51.466;6.806;2023-04-07T07:48:35;101278.41;;;10.91;100.00
16580;BME280;8402;51.466;6.806;2023-04-07T07:51:05;101275.69;;;10.91;100.00
16580;BME280;8402;51.466;6.806;2023-04-07T07:53:35;101276.78;;;10.90;100.00
16580;BME280;8402;51.466;6.806;2023-04-07T07:56:05;101276.31;;;10.88;100.00
16580;BME280;8402;51.466;6.806;2023-04-07T07:58:35;101281.59;;;10.93;100.00
16580;BME280;8402;51.466;6.806;2023-04-07T08:01:05;101281.00;;;10.96;100.00
16580;BME280;8402;51.466;6.806;2023-04-07T08:03:37;101277.69;;;10.99;100.00
16580;BME280;8402;51.466;6.806;2023-04-07T08:06:07;101284.13;;;11.03;100.00
16580;BME280;8402;51.466;6.806;2023-04-07T08:08:38;101286.75;;;11.08;100.00
16580;BME280;8402;51.466;6.806;2023-04-07T08:11:08;101283.31;;;11.16;100.00
16580;BME280;8402;51.466;6.806;2023-04-07T08:13:38;101285.63;;;11.23;100.00
16580;BME280;8402;51.466;6.806;2023-04-07T08:16:11;101283.28;;;11.30;100.00
16580;BME280;8402;51.466;6.806;2023-04-07T08:18:44;101287.28;;;11.33;100.00
16580;BME280;8402;51.466;6.806;2023-04-07T08:21:14;101286.66;;;11.36;100.00
16580;BME280;8402;51.466;6.806;2023-04-07T08:23:45;101292.09;;;11.36;100.00
16580;BME280;8402;51.466;6.806;2023-04-07T08:26:16;101293.53;;;11.33;100.00
16580;BME280;8402;51.466;6.806;2023-04-07T08:28:47;101298.16;;;11.33;100.00
16580;BME280;8402;51.466;6.806;2023-04-07T08:31:17;101307.13;;;11.33;100.00
16580;BME280;8402;51.466;6.806;2023-04-07T08:33:50;101311.25;;;11.30;100.00
16580;BME280;8402;51.466;6.806;2023-04-07T08:36:24;101316.69;;;11.30;100.00
16580;BME280;8402;51.466;6.806;2023-04-07T08:38:56;101312.06;;;11.31;100.00
16580;BME280;8402;51.466;6.806;2023-04-07T08:41:30;101319.09;;;11.32;100.00
16580;BME280;8402;51.466;6.806;2023-04-07T08:44:02;101321.50;;;11.34;100.00
16580;BME280;8402;51.466;6.806;2023-04-07T08:46:33;101323.09;;;11.35;100.00
16580;BME280;8402;51.466;6.806;2023-04-07T08:49:07;101322.00;;;11.36;100.00
16580;BME280;8402;51.466;6.806;2023-04-07T08:51:44;101323.09;;;11.35;100.00
16580;BME280;8402;51.466;6.806;2023-04-07T08:54:17;101316.06;;;11.34;100.00
16580;BME280;8402;51.466;6.806;2023-04-07T08:56:49;101323.09;;;11.35;100.00
16580;BME280;8402;51.466;6.806;2023-04-07T08:59:20;101328.66;;;11.29;100.00
16580;BME280;8402;51.466;6.806;2023-04-07T09:01:53;101333.56;;;11.27;100.00
16580;BME280;8402;51.466;6.806;2023-04-07T09:04:26;101342.84;;;11.26;100.00
16580;BME280;8402;51.466;6.806;2023-04-07T09:06:56;101338.84;;;11.24;100.00
16580;BME280;8402;51.466;6.806;2023-04-07T09:09:28;101333.09;;;11.25;100.00
16580;BME280;8402;51.466;6.806;2023-04-07T09:11:58;101338.41;;;11.30;100.00
16580;BME280;8402;51.466;6.806;2023-04-07T09:14:28;101340.63;;;11.28;100.00
16580;BME280;8402;51.466;6.806;2023-04-07T09:16:58;101344.97;;;11.29;100.00
16580;BME280;8402;51.466;6.806;2023-04-07T09:19:32;101346.56;;;11.30;100.00
16580;BME280;8402;51.466;6.806;2023-04-07T09:22:02;101353.13;;;11.29;100.00
16580;BME280;8402;51.466;6.806;2023-04-07T09:24:32;101345.47;;;11.32;100.00
16580;BME280;8402;51.466;6.806;2023-04-07T09:27:10;101346.88;;;11.29;100.00
16580;BME280;8402;51.466;6.806;2023-04-07T09:29:44;101354.91;;;11.34;100.00
16580;BME280;8402;51.466;6.806;2023-04-07T09:32:34;101348.66;;;11.34;100.00
16580;BME280;8402;51.466;6.806;2023-04-07T09:35:08;101351.28;;;11.39;100.00
16580;BME280;8402;51.466;6.806;2023-04-07T09:37:38;101347.78;;;11.38;100.00
16580;BME280;8402;51.466;6.806;2023-04-07T09:40:08;101348.88;;;11.37;100.00
16580;BME280;8402;51.466;6.806;2023-04-07T09:42:44;101351.88;;;11.36;100.00
16580;BME280;8402;51.466;6.806;2023-04-07T09:45:23;101347.06;;;11.33;100.00
16580;BME280;8402;51.466;6.806;2023-04-07T09:48:04;101353.31;;;11.33;100.00
16580;BME280;8402;51.466;6.806;2023-04-07T09:50:38;101350.59;;;11.33;100.00
16580;BME280;8402;51.466;6.806;2023-04-07T09:53:11;101352.81;;;11.31;100.00
16580;BME280;8402;51.466;6.806;2023-04-07T09:55:41;101353.31;;;11.33;100.00
16580;BME280;8402;51.466;6.806;2023-04-07T09:58:12;101351.88;;;11.36;100.00
16580;BME280;8402;51.466;6.806;2023-04-07T10:00:43;101352.41;;;11.38;100.00
16580;BME280;8402;51.466;6.806;2023-04-07T10:03:14;101354.50;;;11.41;100.00
16580;BME280;8402;51.466;6.806;2023-04-07T10:05:47;101352.41;;;11.38;100.00
16580;BME280;8402;51.466;6.806;2023-04-07T10:08:17;101357.03;;;11.37;100.00
16580;BME280;8402;51.466;6.806;2023-04-07T10:10:47;101358.94;;;11.37;100.00
16580;BME280;8402;51.466;6.806;2023-04-07T10:13:18;101352.91;;;11.40;100.00
16580;BME280;8402;51.466;6.806;2023-04-07T10:15:50;101356.09;;;11.42;100.00
16580;BME280;8402;51.466;6.806;2023-04-07T10:18:22;101362.53;;;11.46;100.00
16580;BME280;8402;51.466;6.806;2023-04-07T10:20:59;101365.75;;;11.48;100.00
16580;BME280;8402;51.466;6.806;2023-04-07T10:23:47;101372.63;;;11.45;100.00
16580;BME280;8402;51.466;6.806;2023-04-07T10:26:21;101370.81;;;11.41;100.00
16580;BME280;8402;51.466;6.806;2023-04-07T10:29:01;101375.25;;;11.37;100.00
16580;BME280;8402;51.466;6.806;2023-04-07T10:31:33;101384.19;;;11.37;100.00
16580;BME280;8402;51.466;6.806;2023-04-07T10:34:03;101373.81;;;11.39;100.00
16580;BME280;8402;51.466;6.806;2023-04-07T10:39:43;101372.41;;;11.42;100.00
16580;BME280;8402;51.466;6.806;2023-04-07T10:42:43;101382.28;;;11.38;100.00
16580;BME280;8402;51.466;6.806;2023-04-07T10:45:13;101386.13;;;11.37;100.00
16580;BME280;8402;51.466;6.806;2023-04-07T10:48:10;101382.69;;;11.31;100.00
16580;BME280;8402;51.466;6.806;2023-04-07T10:50:41;101387.50;;;11.34;100.00
16580;BME280;8402;51.466;6.806;2023-04-07T10:53:14;101393.16;;;11.38;100.00
16580;BME280;8402;51.466;6.806;2023-04-07T10:55:45;101396.59;;;11.43;100.00
16580;BME280;8402;51.466;6.806;2023-04-07T10:58:17;101387.50;;;11.48;100.00
16580;BME280;8402;51.466;6.806;2023-04-07T11:03:58;101396.97;;;11.50;100.00
16580;BME280;8402;51.466;6.806;2023-04-07T11:06:30;101391.72;;;11.54;100.00
16580;BME280;8402;51.466;6.806;2023-04-07T11:09:03;101400.38;;;11.56;100.00
16580;BME280;8402;51.466;6.806;2023-04-07T11:11:38;101395.56;;;11.53;100.00
16580;BME280;8402;51.466;6.806;2023-04-07T11:14:08;101397.47;;;11.52;100.00
16580;BME280;8402;51.466;6.806;2023-04-07T11:16:40;101399.56;;;11.55;100.00
16580;BME280;8402;51.466;6.806;2023-04-07T11:19:11;101402.50;;;11.59;100.00
16580;BME280;8402;51.466;6.806;2023-04-07T11:21:41;101392.09;;;11.61;100.00
16580;BME280;8402;51.466;6.806;2023-04-07T11:24:34;101394.34;;;11.59;100.00
16580;BME280;8402;51.466;6.806;2023-04-07T11:27:09;101399.38;;;11.66;100.00
16580;BME280;8402;51.466;6.806;2023-04-07T11:29:41;101394.72;;;11.66;100.00
16580;BME280;8402;51.466;6.806;2023-04-07T11:32:11;101404.97;;;11.69;100.00
16580;BME280;8402;51.466;6.806;2023-04-07T11:34:44;101404.00;;;11.65;100.00
16580;BME280;8402;51.466;6.806;2023-04-07T11:37:21;101404.00;;;11.65;100.00
16580;BME280;8402;51.466;6.806;2023-04-07T11:39:55;101402.25;;;11.69;100.00
16580;BME280;8402;51.466;6.806;2023-04-07T11:42:32;101402.56;;;11.68;100.00
16580;BME280;8402;51.466;6.806;2023-04-07T11:45:03;101407.38;;;11.71;100.00
16580;BME280;8402;51.466;6.806;2023-04-07T11:47:34;101408.19;;;11.71;100.00
16580;BME280;8402;51.466;6.806;2023-04-07T11:50:06;101408.72;;;11.73;100.00
16580;BME280;8402;51.466;6.806;2023-04-07T11:52:42;101416.66;;;11.70;100.00
16580;BME280;8402;51.466;6.806;2023-04-07T11:55:22;101422.63;;;11.72;100.00
16580;BME280;8402;51.466;6.806;2023-04-07T11:57:52;101423.28;;;11.77;100.00
16580;BME280;8402;51.466;6.806;2023-04-07T12:00:23;101421.59;;;11.81;100.00
16580;BME280;8402;51.466;6.806;2023-04-07T12:02:53;101423.72;;;11.84;100.00
16580;BME280;8402;51.466;6.806;2023-04-07T12:05:23;101431.59;;;11.86;100.00
16580;BME280;8402;51.466;6.806;2023-04-07T12:07:53;101438.81;;;11.91;100.00
16580;BME280;8402;51.466;6.806;2023-04-07T12:10:26;101438.31;;;11.89;100.00
16580;BME280;8402;51.466;6.806;2023-04-07T12:12:56;101441.03;;;11.89;100.00
16580;BME280;8402;51.466;6.806;2023-04-07T12:15:28;101438.00;;;11.90;100.00
16580;BME280;8402;51.466;6.806;2023-04-07T12:17:58;101445.84;;;11.92;100.00
16580;BME280;8402;51.466;6.806;2023-04-07T12:20:28;101438.81;;;11.91;100.00
16580;BME280;8402;51.466;6.806;2023-04-07T12:22:58;101436.09;;;11.91;100.00
16580;BME280;8402;51.466;6.806;2023-04-07T12:25:31;101446.16;;;11.90;100.00
16580;BME280;8402;51.466;6.806;2023-04-07T12:28:01;101447.91;;;11.86;100.00
16580;BME280;8402;51.466;6.806;2023-04-07T12:30:31;101455.22;;;11.85;100.00
16580;BME280;8402;51.466;6.806;2023-04-07T12:33:01;101449.78;;;11.85;100.00
16580;BME280;8402;51.466;6.806;2023-04-07T12:35:30;101453.81;;;11.88;100.00
16580;BME280;8402;51.466;6.806;2023-04-07T12:38:01;101450.31;;;11.88;100.00
16580;BME280;8402;51.466;6.806;2023-04-07T12:40:34;101457.34;;;11.89;100.00
16580;BME280;8402;51.466;6.806;2023-04-07T12:43:04;101457.34;;;11.89;100.00
16580;BME280;8402;51.466;6.806;2023-04-07T12:45:34;101457.84;;;11.91;100.00
16580;BME280;8402;51.466;6.806;2023-04-07T12:48:04;101462.16;;;11.92;100.00
16580;BME280;8402;51.466;6.806;2023-04-07T12:50:34;101460.78;;;11.94;100.00
16580;BME280;8402;51.466;6.806;2023-04-07T12:53:05;101470.22;;;11.97;100.00
16580;BME280;8402;51.466;6.806;2023-04-07T12:55:37;101474.22;;;11.99;100.00
16580;BME280;8402;51.466;6.806;2023-04-07T12:58:07;101469.59;;;12.00;100.00
16580;BME280;8402;51.466;6.806;2023-04-07T13:00:39;101465.78;;;12.01;100.00
16580;BME280;8402;51.466;6.806;2023-04-07T13:03:09;101465.78;;;12.01;100.00
16580;BME280;8402;51.466;6.806;2023-04-07T13:05:39;101465.66;;;12.06;100.00
16580;BME280;8402;51.466;6.806;2023-04-07T13:08:09;101475.63;;;12.10;100.00
16580;BME280;8402;51.466;6.806;2023-04-07T13:10:42;101464.53;;;12.07;100.00
16580;BME280;8402;51.466;6.806;2023-04-07T13:13:12;101472.13;;;12.10;100.00
16580;BME280;8402;51.466;6.806;2023-04-07T13:15:42;101471.78;;;12.11;100.00
16580;BME280;8402;51.466;6.806;2023-04-07T13:18:12;101464.94;;;12.14;100.00
16580;BME280;8402;51.466;6.806;2023-04-07T13:20:42;101471.19;;;12.15;100.00